METARS-Meteorological Aerodrome Reports

 

YPEA - Pearce (aus-Afb), Australia
Distance from station: N 11km
Updated: 26/09/2023 03:30
Clear
Clear
 Wind from SSE
Wind: SSE 6 km/h
Temperature: 7°C
Dew Point: 6°C
Humidity: 93%
Barometer: 1023 hPa
Clouds: Clear
Visibility: 10 km
2023/09/25 19:30 YPEA 251930Z AUTO 16003KT 9999 // NCD 07/06 Q1023 RF00.0/000.0
YPPH - Perth Intl/Belmo, Australia
Distance from station: S 19km
Updated: 26/09/2023 03:30
Clear
Clear
 Wind from NE
Wind: NE 6 km/h
Temperature: 7°C
Dew Point: 6°C
Humidity: 93%
Barometer: 1023 hPa
Summary: Clear
Visibility: greater than 10 km
2023/09/25 19:30 YPPH 251930Z 04003KT CAVOK 07/06 Q1023
YPJT - Jandakot, Australia
Distance from station: SSW 39km
Updated: 26/09/2023 04:00
Clear
Clear
 Wind from calm
Wind: Calm
Temperature: 6°C
Dew Point: 6°C
Humidity: 100%
Barometer: 1024 hPa
Clouds: Clear
Visibility: 10 km
2023/09/25 20:00 YPJT 252000Z AUTO 00000KT 9999 // NCD 06/06 Q1024 RF00.0/000.0
 
YBLN - Busselton, Australia
Distance from station: SSW 220km
Updated: 26/09/2023 04:00
Light rain, Showers, Overcast
Light rain, Showers, Overcast
 Wind from S
Wind: S 6 km/h
Temperature: 6°C
Dew Point: 6°C
Humidity: 100%
Barometer: 1024 hPa
Summary: Light rain, Showers
Clouds: Overcast
Visibility: 0 km
Cloud details: Overcast 30 m
Overcast 305 m
2023/09/25 20:00 YBLN 252000Z AUTO 18003KT 0300 -SHRA OVC001 OVC010 06/06 Q1024
YGEL - Geraldton, Australia
Distance from station: NNW 353km
Updated: 26/09/2023 03:30
Clear
Clear
 Wind from SSE
Wind: SSE 11 km/h
Temperature: 9°C
Wind Chill: 7°C
Dew Point: 8°C
Humidity: 94%
Barometer: 1022 hPa
Clouds: Clear
Visibility: 10 km
2023/09/25 19:30 YGEL 251930Z AUTO 15006KT 9999 // NCD 09/08 Q1022 RF00.0/000.0
YPKG - Kalgoorlie/Bould, Australia
Distance from station: E 529km
Updated: 26/09/2023 03:30
Clear
Clear
 Wind from S
Wind: S 24 km/h
Temperature: 16°C
Dew Point: 10°C
Humidity: 68%
Barometer: 1019 hPa
Clouds: Clear
Visibility: 10 km
2023/09/25 19:30 YPKG 251930Z AUTO 18013KT 9999 // NCD 16/10 Q1019 RF00.0/000.0
 
YPLM - Learmouth, Australia
Distance from station: N 1077km
Updated: 26/09/2023 03:30
Clear
Clear
 Wind from SE
Wind: SE 24 km/h
Temperature: 16°C
Dew Point: 12°C
Humidity: 77%
Barometer: 1015 hPa
Clouds: Clear
Visibility: 10 km
2023/09/25 19:30 YPLM 251930Z AUTO 14013KT 9999 // NCD 16/12 Q1015 RF00.0/000.0
YFRT - Forrest, Australia
Distance from station: E 1155km
Updated: 26/09/2023 03:30
Mostly cloudy
Mostly cloudy
 Wind from S
Wind: S 13 km/h
Temperature: 14°C
Dew Point: 11°C
Humidity: 82%
Barometer: 1017 hPa
Clouds: Mostly cloudy
Visibility: 10 km
Cloud details: Mostly cloudy 3353 m
2023/09/25 19:30 YFRT 251930Z AUTO 17007KT 9999 // BKN110 14/11 Q1017 RF00.0/000.0
YPPD - Port Hedland Arr, Australia
Distance from station: NNE 1294km
Updated: 26/09/2023 03:30
Clear
Clear
 Wind from SSW
Wind: SSW 11 km/h
Temperature: 23°C
Dew Point: 6°C
Humidity: 33%
Barometer: 1011 hPa
Clouds: Clear
Visibility: 10 km
2023/09/25 19:30 YPPD 251930Z AUTO 21006KT 9999 // NCD 23/06 Q1011 RF00.0/000.0
 
YBRM - Broome Airport, Australia
Distance from station: WNW 12km
Updated: 26/09/2023 03:30
Clear
Clear
 Wind from WNW
Wind: WNW 7 km/h
Temperature: 21°C
Dew Point: 20°C
Humidity: 94%
Barometer: 1010 hPa
Clouds: Clear
Visibility: 10 km
2023/09/25 19:30 YBRM 251930Z AUTO 30004KT 9999 // NCD 21/20 Q1010 RF00.0/000.2
YCIN - Curtin/Derby, Australia
Distance from station: ENE 163km
Updated: 26/09/2023 04:00
Fog, Overcast
Fog, Overcast
 Wind from N
Wind: N 9 km/h
Temperature: 21°C
Dew Point: 21°C
Humidity: 100%
Barometer: 1010 hPa
Summary: Fog
Clouds: Overcast
Visibility: 0 km
Cloud details: Overcast 30 m
2023/09/25 20:00 YCIN 252000Z AUTO 01005KT 0050 FG OVC001 21/21 Q1010 RF00.0/000.0
YPKU - Kununurra Airpor, Australia
Distance from station: ENE 719km
Updated: 26/09/2023 03:30
Partly cloudy
Partly cloudy
 Wind from E
Wind: E 9 km/h
Temperature: 22°C
Dew Point: 19°C
Humidity: 83%
Barometer: 1011 hPa
Clouds: Partly cloudy
Visibility: 10 km
Cloud details: Partly cloudy 3810 m
2023/09/25 19:30 YPKU 251930Z AUTO 10005KT 9999 // SCT125 22/19 Q1011 RF00.0/000.0
 
YPTN - Katherine/Tindal, Australia
Distance from station: ENE 1138km
Updated: 26/09/2023 03:30
Clear
Clear
 Wind from N
Wind: N 2 km/h
Temperature: 25°C
Dew Point: 17°C
Humidity: 61%
Barometer: 1013 hPa
Clouds: Clear
Visibility: 10 km
2023/09/25 19:30 YPTN 251930Z AUTO 36001KT 9999 // NCD 25/17 Q1013 RF00.0/000.0
YPDN - Darwin (civ/Mil), Australia
Distance from station: ENE 1105km
Updated: 26/09/2023 03:30
Clear
Clear
 Wind from NE
Wind: NE 4 km/h
Temperature: 23°C
Dew Point: 22°C
Humidity: 94%
Barometer: 1013 hPa
Clouds: Clear
Visibility: 10 km
2023/09/25 19:30 YPDN 251930Z AUTO 04002KT 9999 // NCD 23/22 Q1013 RF00.0/000.0
YBAS - Alice Springs Ar, Australia
Distance from station: ESE 1364km
Updated: 26/09/2023 03:30

 Wind from NW
Wind: NW 2 km/h
Temperature: 13°C
Dew Point: -3°C
Humidity: 33%
Barometer: 1017 hPa
Visibility: 10 km
2023/09/25 19:30 YBAS 251930Z AUTO 31001KT 9999 // ////// 13/M03 Q1017 RF00.0/000.0
 
WATT - El Tari, Indonesia
Distance from station: N 878km
Updated: 26/09/2023 03:30
Clear
Clear
 Wind from WNW
Wind: WNW 2 km/h
Temperature: 22°C
Dew Point: 17°C
Humidity: 73%
Barometer: 1012 hPa
Clouds: Clear
Visibility: 10 km
2023/09/25 19:30 WATT 251930Z AUTO 29001KT 9999 NCD 22/17 Q1012
WADL - Bandara, Indonesia
Distance from station: NNW 1215km
Updated: 26/09/2023 04:00
Partly cloudy
Partly cloudy
 Wind from E
Wind: E 4 km/h
Temperature: 23°C
Dew Point: 21°C
Humidity: 89%
Barometer: 1013 hPa
Clouds: Partly cloudy
Visibility: 7 km
Cloud details: Partly cloudy 488 m
2023/09/25 20:00 WADL 252000Z 10002KT 7000 SCT016 23/21 Q1013 NOSIG
WADD - Bali Intl, Indonesia
Distance from station: NW 1286km
Updated: 26/09/2023 03:30
Partly cloudy
Partly cloudy
 Wind from N
Wind: N 4 km/h
Temperature: 24°C
Dew Point: 22°C
Humidity: 89%
Barometer: 1011 hPa
Clouds: Partly cloudy
Visibility: 10 km
Cloud details: Partly cloudy 488 m
2023/09/25 19:30 WADD 251930Z 35002KT 9999 SCT016 24/22 Q1011 NOSIG